Time;durP1;ratioP1;P1;durP2;ratioP2;P2;SDS_P1;SDS_P2;PMS_P1;PMS_P2;Temp;Humidity;BMP_temperature;BMP_pressure;BME280_temperature;BME280_humidity;BME280_pressure;Samples;Min_cycle;Max_cycle;Signal;HPM_P1;HPM_P2
2023/06/13 00:00:10;;;;;;;2.35;2.05;;;;;;;17.67;100.00;97705.28;4987291;28;20190;-57
2023/06/13 00:02:37;;;;;;;2.42;1.80;;;;;;;17.81;100.00;97725.50;4991383;28;20210;-57
2023/06/13 00:05:05;;;;;;;3.65;2.10;;;;;;;17.83;100.00;97708.66;4990677;28;20660;-58
2023/06/13 00:07:37;;;;;;;5.97;2.10;;;;;;;17.81;100.00;97696.72;4952343;29;20243;-58
2023/06/13 00:10:05;;;;;;;2.78;1.77;;;;;;;17.96;100.00;97721.25;4952485;29;20270;-57
2023/06/13 00:12:32;;;;;;;2.50;1.90;;;;;;;18.00;100.00;97720.72;4952408;29;20592;-57
2023/06/13 00:15:01;;;;;;;3.20;1.40;;;;;;;18.04;100.00;97714.19;4952383;29;20339;-58
2023/06/13 00:17:29;;;;;;;5.15;1.90;;;;;;;17.97;100.00;97688.84;4952339;29;20200;-57
2023/06/13 00:19:55;;;;;;;5.45;1.98;;;;;;;18.11;100.00;97711.69;4969378;28;20195;-57
2023/06/13 00:22:21;;;;;;;1.80;1.70;;;;;;;18.03;100.00;97702.09;4971646;28;20264;-57
2023/06/13 00:24:46;;;;;;;4.15;1.63;;;;;;;17.98;100.00;97716.66;4971555;28;20203;-58
2023/06/13 00:27:12;;;;;;;2.38;2.08;;;;;;;17.65;100.00;97688.91;4971648;28;20251;-57
2023/06/13 00:29:37;;;;;;;2.30;2.20;;;;;;;17.91;100.00;97705.22;4972601;28;20267;-58
2023/06/13 00:32:03;;;;;;;4.40;2.13;;;;;;;17.97;100.00;97701.94;5026056;28;20190;-58
2023/06/13 00:34:28;;;;;;;4.82;1.90;;;;;;;18.07;100.00;97711.22;5030172;28;20174;-58
2023/06/13 00:36:55;;;;;;;2.03;1.92;;;;;;;18.09;100.00;97714.50;5010328;28;20198;-57
2023/06/13 00:39:22;;;;;;;1.80;1.63;;;;;;;18.22;100.00;97714.78;5010305;28;20218;-58
2023/06/13 00:41:47;;;;;;;2.35;1.95;;;;;;;17.96;100.00;97687.22;5010271;28;20692;-58
2023/06/13 00:44:13;;;;;;;3.63;1.90;;;;;;;17.92;100.00;97694.59;5018290;28;20197;-57
2023/06/13 00:46:39;;;;;;;3.78;2.05;;;;;;;17.86;100.00;97697.06;5049790;28;20213;-57
2023/06/13 00:49:06;;;;;;;7.10;2.08;;;;;;;17.63;100.00;97719.66;5049827;28;20650;-58
2023/06/13 00:51:35;;;;;;;4.00;2.17;;;;;;;17.37;100.00;97685.00;5049848;28;20647;-58
2023/06/13 00:54:02;;;;;;;2.72;1.98;;;;;;;17.58;100.00;97711.47;5050088;28;20197;-58
2023/06/13 00:56:30;;;;;;;3.58;2.22;;;;;;;17.42;100.00;97693.19;5049823;28;20662;-57
2023/06/13 00:59:00;;;;;;;4.72;1.83;;;;;;;17.47;100.00;97693.50;5049788;28;20177;-57
2023/06/13 01:01:27;;;;;;;6.47;1.98;;;;;;;17.26;100.00;97693.19;5049718;28;20177;-57
2023/06/13 01:03:53;;;;;;;3.75;2.33;;;;;;;17.20;100.00;97705.09;5049734;28;20710;-57
2023/06/13 01:06:19;;;;;;;3.60;2.25;;;;;;;16.94;100.00;97673.06;5049603;28;20183;-57
2023/06/13 01:08:45;;;;;;;2.03;1.90;;;;;;;17.10;100.00;97682.72;5068618;28;20180;-57
2023/06/13 01:11:54;;;;;;;3.38;1.88;;;;;;;17.36;100.00;97702.47;5071989;28;20176;-57
2023/06/13 01:14:48;;;;;;;2.05;1.95;;;;;;;17.10;100.00;97682.72;5049620;28;20778;-57
2023/06/13 01:17:30;;;;;;;5.40;2.22;;;;;;;17.05;100.00;97690.22;5053699;28;20181;-58
2023/06/13 01:19:59;;;;;;;2.20;1.83;;;;;;;17.26;100.00;97690.56;5053761;28;20169;-57
2023/06/13 01:22:38;;;;;;;7.65;2.28;;;;;;;17.29;100.00;97672.75;5053641;28;20670;-58
2023/06/13 01:25:11;;;;;;;2.80;1.60;;;;;;;17.47;100.00;97689.09;5053515;28;20237;-57
2023/06/13 01:27:39;;;;;;;4.80;1.90;;;;;;;17.22;100.00;97660.50;5053551;28;20208;-57
2023/06/13 01:30:06;;;;;;;9.27;2.13;;;;;;;17.37;100.00;97674.53;5053269;28;20225;-58
2023/06/13 01:32:33;;;;;;;3.45;2.00;;;;;;;17.60;100.00;97691.22;5053541;28;20177;-58
2023/06/13 01:35:00;;;;;;;3.58;2.10;;;;;;;17.32;100.00;97666.38;5053389;28;20185;-58
2023/06/13 01:37:26;;;;;;;2.28;1.90;;;;;;;17.48;100.00;97688.13;5053364;28;20181;-58
2023/06/13 01:39:51;;;;;;;8.55;1.80;;;;;;;17.21;100.00;97666.69;5053237;28;20188;-58
2023/06/13 01:42:17;;;;;;;4.28;1.98;;;;;;;17.00;100.00;97661.13;5053305;28;20568;-57
2023/06/13 01:44:43;;;;;;;1.45;1.45;;;;;;;17.16;100.00;97669.00;5060309;28;20222;-57
2023/06/13 01:47:34;;;;;;;2.00;1.90;;;;;;;17.19;100.00;97686.97;5075518;28;20222;-57
2023/06/13 01:50:30;;;;;;;2.65;1.88;;;;;;;17.19;100.00;97684.38;5075267;28;20219;-57
2023/06/13 01:53:14;;;;;;;4.25;2.05;;;;;;;17.24;100.00;97692.50;5075443;28;20172;-57
2023/06/13 01:55:43;;;;;;;5.68;2.08;;;;;;;17.07;100.00;97664.72;5075411;28;20180;-57
2023/06/13 01:58:34;;;;;;;4.75;1.95;;;;;;;17.16;100.00;97688.13;5075347;28;20181;-57
2023/06/13 02:01:04;;;;;;;2.05;1.88;;;;;;;16.99;100.00;97659.50;5072810;28;20200;-58
2023/06/13 02:03:29;;;;;;;4.72;2.33;;;;;;;17.08;100.00;97671.63;5072818;28;20188;-57
2023/06/13 02:05:57;;;;;;;3.33;1.83;;;;;;;17.10;100.00;97672.25;5072875;28;20189;-57
2023/06/13 02:08:23;;;;;;;2.15;1.98;;;;;;;17.05;100.00;97656.25;5072749;28;20283;-57
2023/06/13 02:10:48;;;;;;;4.40;2.35;;;;;;;17.12;100.00;97672.91;5072778;28;20276;-57
2023/06/13 02:13:13;;;;;;;5.80;2.40;;;;;;;17.12;100.00;97652.00;5072743;28;20211;-57
2023/06/13 02:15:39;;;;;;;3.60;2.60;;;;;;;17.16;100.00;97672.44;5072682;28;20195;-58
2023/06/13 02:18:05;;;;;;;15.98;2.70;;;;;;;17.11;100.00;97679.94;5072644;28;20172;-57
2023/06/13 02:20:30;;;;;;;6.05;2.03;;;;;;;17.04;100.00;97672.91;5072577;28;20664;-57
2023/06/13 02:22:56;;;;;;;4.45;2.00;;;;;;;16.92;100.00;97663.75;5072490;28;20177;-57
2023/06/13 02:25:22;;;;;;;4.70;2.25;;;;;;;16.91;100.00;97683.03;5072405;28;20184;-57
2023/06/13 02:27:48;;;;;;;2.85;2.20;;;;;;;16.63;100.00;97674.66;5031620;28;20218;-57
2023/06/13 02:30:14;;;;;;;6.35;2.08;;;;;;;16.62;100.00;97646.88;5026371;28;20239;-57
2023/06/13 02:32:42;;;;;;;2.38;2.17;;;;;;;16.63;100.00;97658.16;5028108;28;20190;-57
2023/06/13 02:35:09;;;;;;;6.90;2.60;;;;;;;16.56;100.00;97689.31;5032394;28;20285;-57
2023/06/13 02:37:35;;;;;;;5.10;2.00;;;;;;;16.42;100.00;97679.50;5032253;28;20186;-58
2023/06/13 02:40:00;;;;;;;6.25;2.13;;;;;;;16.30;100.00;97670.28;5032196;28;20572;-58
2023/06/13 02:42:29;;;;;;;3.95;2.10;;;;;;;16.29;100.00;97673.88;4992743;28;20219;-57
2023/06/13 02:44:54;;;;;;;9.85;2.22;;;;;;;16.51;100.00;97685.56;4992835;28;20190;-57
2023/06/13 02:47:21;;;;;;;3.97;2.55;;;;;;;16.71;100.00;97699.97;4992675;28;20223;-57
2023/06/13 02:49:46;;;;;;;1.90;1.80;;;;;;;16.82;100.00;97705.72;4992777;28;20285;-57
2023/06/13 02:52:12;;;;;;;2.22;2.13;;;;;;;16.88;100.00;97702.47;4992706;28;20669;-57
2023/06/13 02:54:37;;;;;;;5.55;1.98;;;;;;;16.71;100.00;97694.75;4992960;28;20248;-57
2023/06/13 02:57:03;;;;;;;2.80;2.20;;;;;;;16.82;100.00;97704.88;4992616;28;20262;-57
2023/06/13 02:59:28;;;;;;;2.28;2.13;;;;;;;16.85;100.00;97701.97;5023554;28;20277;-57
2023/06/13 03:01:54;;;;;;;4.05;2.22;;;;;;;16.76;100.00;97685.47;5031878;28;20182;-57
2023/06/13 03:04:19;;;;;;;4.35;2.17;;;;;;;16.83;100.00;97698.69;4992329;28;20347;-57
2023/06/13 03:06:46;;;;;;;5.22;2.40;;;;;;;16.94;100.00;97714.88;4992368;28;20207;-57
2023/06/13 03:09:11;;;;;;;3.28;2.35;;;;;;;17.04;100.00;97717.34;4992320;28;20198;-57
2023/06/13 03:11:37;;;;;;;4.57;2.10;;;;;;;16.91;100.00;97685.66;4992320;28;20184;-58
2023/06/13 03:14:02;;;;;;;5.13;2.20;;;;;;;17.12;100.00;97722.56;4992278;28;20207;-57
2023/06/13 03:16:28;;;;;;;4.30;2.35;;;;;;;16.88;100.00;97693.78;4992257;28;20180;-57
2023/06/13 03:18:54;;;;;;;10.55;2.63;;;;;;;16.79;100.00;97684.31;4996320;28;20326;-57
2023/06/13 03:21:20;;;;;;;4.75;2.65;;;;;;;16.98;100.00;97718.81;5031541;28;20664;-57
2023/06/13 03:23:46;;;;;;;2.28;2.17;;;;;;;16.93;100.00;97694.13;5031414;28;20224;-57
2023/06/13 03:26:12;;;;;;;2.70;2.35;;;;;;;17.03;100.00;97708.66;5031430;28;20181;-57
2023/06/13 03:28:37;;;;;;;3.38;3.00;;;;;;;17.23;100.00;97717.03;5031281;28;20213;-57
2023/06/13 03:31:04;;;;;;;3.38;2.38;;;;;;;17.23;100.00;97714.41;5031173;28;20259;-57
2023/06/13 03:33:29;;;;;;;2.75;2.35;;;;;;;17.38;100.00;97711.00;5031196;28;20182;-57
2023/06/13 03:35:55;;;;;;;3.33;2.55;;;;;;;17.28;100.00;97696.44;5063020;28;20241;-57
2023/06/13 03:38:20;;;;;;;4.00;2.13;;;;;;;17.31;100.00;97712.63;5073031;28;20176;-57
2023/06/13 03:40:46;;;;;;;4.97;2.50;;;;;;;17.33;100.00;97707.22;5072857;28;20165;-57
2023/06/13 03:43:12;;;;;;;5.85;2.50;;;;;;;17.24;100.00;97690.72;5073397;28;20263;-57
2023/06/13 03:45:37;;;;;;;6.57;2.75;;;;;;;17.42;100.00;97711.50;5050844;28;20777;-57
2023/06/13 03:48:03;;;;;;;3.92;2.38;;;;;;;17.36;100.00;97694.63;5050852;28;20311;-57
2023/06/13 03:50:28;;;;;;;4.03;1.75;;;;;;;17.59;100.00;97711.31;5050868;28;20196;-57
2023/06/13 03:52:53;;;;;;;6.50;2.42;;;;;;;17.48;100.00;97705.63;5050824;28;20259;-57
2023/06/13 03:55:19;;;;;;;3.63;3.25;;;;;;;17.48;100.00;97700.41;5050842;28;20185;-57
2023/06/13 03:57:45;;;;;;;5.18;2.70;;;;;;;17.58;100.00;97719.34;5050642;28;20197;-57
2023/06/13 04:00:11;;;;;;;2.22;2.03;;;;;;;17.67;100.00;97724.38;5050616;28;20189;-57
2023/06/13 04:02:37;;;;;;;3.50;2.35;;;;;;;17.72;100.00;97706.41;5050543;28;20181;-57
2023/06/13 04:05:04;;;;;;;2.63;2.33;;;;;;;17.70;100.00;97703.13;5050608;28;20192;-57
2023/06/13 04:07:33;;;;;;;2.80;2.50;;;;;;;17.86;100.00;97707.53;5050473;28;20193;-57
2023/06/13 04:10:00;;;;;;;2.35;2.15;;;;;;;17.90;100.00;97716.69;5050505;28;20181;-57
2023/06/13 04:12:25;;;;;;;2.85;2.63;;;;;;;18.05;100.00;97723.66;5050428;28;20189;-57
2023/06/13 04:14:50;;;;;;;2.85;2.65;;;;;;;18.07;100.00;97723.50;5050353;28;20555;-57
2023/06/13 04:17:16;;;;;;;7.15;4.10;;;;;;;18.21;100.00;97734.09;5067839;28;20274;-57
2023/06/13 04:19:41;;;;;;;9.35;4.80;;;;;;;18.40;100.00;97735.53;5072320;28;20195;-57
2023/06/13 04:22:07;;;;;;;12.48;8.32;;;;;;;18.55;100.00;97739.91;5072901;28;20177;-57
2023/06/13 04:24:32;;;;;;;14.30;10.63;;;;;;;18.64;100.00;97730.16;5072593;28;20225;-57
2023/06/13 04:26:58;;;;;;;17.00;11.55;;;;;;;18.75;100.00;97732.41;5072192;28;20192;-56
2023/06/13 04:29:25;;;;;;;14.63;11.95;;;;;;;19.03;100.00;97757.16;5072533;28;20175;-57
2023/06/13 04:31:50;;;;;;;15.38;12.23;;;;;;;19.07;100.00;97740.09;5092239;28;20192;-57
2023/06/13 04:34:18;;;;;;;13.77;11.43;;;;;;;19.17;100.00;97744.09;5093001;28;20172;-58
2023/06/13 04:36:44;;;;;;;13.13;9.98;;;;;;;19.33;100.00;97764.19;5092673;28;20175;-57
2023/06/13 04:39:09;;;;;;;11.88;8.80;;;;;;;19.18;100.00;97734.44;5092542;28;20513;-57
2023/06/13 04:41:43;;;;;;;11.50;8.60;;;;;;;19.05;100.00;97729.78;5092581;28;20274;-57
2023/06/13 04:44:09;;;;;;;9.85;8.68;;;;;;;18.99;100.00;97755.84;5092267;28;20155;-57
2023/06/13 04:46:36;;;;;;;11.23;9.80;;;;;;;19.05;100.00;97769.09;5092421;28;20240;-57
2023/06/13 04:49:04;;;;;;;13.35;8.80;;;;;;;18.94;100.00;97758.22;5092382;28;20329;-57
2023/06/13 04:51:30;;;;;;;12.38;8.82;;;;;;;19.06;100.00;97767.31;5092192;28;20191;-57
2023/06/13 04:54:00;;;;;;;15.85;9.45;;;;;;;18.93;100.00;97746.06;5092337;28;20262;-57
2023/06/13 04:56:27;;;;;;;14.40;9.27;;;;;;;19.03;100.00;97759.78;5092332;28;20187;-57
2023/06/13 04:58:53;;;;;;;12.00;7.90;;;;;;;19.10;100.00;97768.56;5092335;28;20186;-57
2023/06/13 05:01:19;;;;;;;13.60;8.88;;;;;;;19.14;100.00;97780.38;5092335;28;20188;-57
2023/06/13 05:03:45;;;;;;;12.48;7.82;;;;;;;19.12;100.00;97767.41;5092573;28;20171;-57
2023/06/13 05:06:12;;;;;;;14.57;7.80;;;;;;;19.12;100.00;97766.63;5092591;28;20183;-57
2023/06/13 05:08:38;;;;;;;9.88;7.80;;;;;;;19.26;100.00;97785.06;5092129;28;20240;-57
2023/06/13 05:11:03;;;;;;;10.25;7.60;;;;;;;19.34;100.00;97774.53;5092248;28;20183;-57
2023/06/13 05:13:29;;;;;;;9.30;7.63;;;;;;;19.27;100.00;97762.28;5092150;28;20167;-57
2023/06/13 05:15:55;;;;;;;9.15;7.68;;;;;;;19.29;100.00;97752.44;5092171;28;20613;-57
2023/06/13 05:18:22;;;;;;;7.50;6.65;;;;;;;19.36;100.00;97762.03;5092120;28;20180;-58
2023/06/13 05:20:47;;;;;;;11.43;7.53;;;;;;;19.45;100.00;97775.91;5091728;28;20659;-58
2023/06/13 05:23:13;;;;;;;12.57;7.25;;;;;;;19.42;100.00;97776.28;5092142;28;20180;-57
2023/06/13 05:25:39;;;;;;;10.18;7.15;;;;;;;19.43;100.00;97785.78;5049356;28;20663;-58
2023/06/13 05:28:04;;;;;;;10.35;6.85;;;;;;;19.58;100.00;97802.41;5049389;28;20205;-58
2023/06/13 05:30:30;;;;;;;10.35;7.00;;;;;;;19.57;100.00;97793.69;5029278;28;20214;-58
2023/06/13 05:32:56;;;;;;;10.32;7.47;;;;;;;19.62;100.00;97803.66;5029533;28;20186;-58
2023/06/13 05:35:22;;;;;;;9.18;7.07;;;;;;;19.70;100.00;97808.88;5029446;28;20620;-58
2023/06/13 05:37:48;;;;;;;8.70;7.32;;;;;;;19.62;100.00;97787.91;5029563;28;20182;-58
2023/06/13 05:40:14;;;;;;;9.30;6.78;;;;;;;19.73;100.00;97796.19;5029490;28;20260;-58
2023/06/13 05:42:39;;;;;;;9.75;7.78;;;;;;;19.89;100.00;97821.50;5029538;28;20655;-58
2023/06/13 05:45:08;;;;;;;8.25;7.00;;;;;;;19.86;100.00;97808.72;5029405;28;20217;-57
2023/06/13 05:47:33;;;;;;;10.13;7.75;;;;;;;19.88;100.00;97807.53;5012927;28;20221;-56
2023/06/13 05:49:59;;;;;;;10.95;6.82;;;;;;;19.93;100.00;97818.34;5029348;28;20687;-57
2023/06/13 05:52:25;;;;;;;8.55;7.22;;;;;;;19.84;100.00;97827.28;5029350;28;20565;-57
2023/06/13 05:54:51;;;;;;;10.18;7.20;;;;;;;19.68;100.00;97801.16;5029421;28;20209;-57
2023/06/13 05:57:16;;;;;;;9.73;8.13;;;;;;;19.84;100.00;97826.47;5044701;28;20283;-57
2023/06/13 05:59:42;;;;;;;10.48;7.20;;;;;;;19.90;100.00;97816.09;5049274;28;20178;-57
2023/06/13 06:02:09;;;;;;;15.23;7.40;;;;;;;19.92;100.00;97808.00;5082297;28;20179;-57
2023/06/13 06:04:35;;;;;;;8.45;7.22;;;;;;;20.04;100.00;97806.59;5032856;28;20216;-57
2023/06/13 06:07:00;;;;;;;7.70;6.88;;;;;;;19.99;100.00;97809.75;5032808;28;20213;-57
2023/06/13 06:09:26;;;;;;;12.77;8.02;;;;;;;20.21;100.00;97823.84;5032878;28;20186;-57
2023/06/13 06:11:52;;;;;;;11.63;8.25;;;;;;;20.37;100.00;97823.69;5032857;28;20174;-58
2023/06/13 06:14:17;;;;;;;14.20;9.80;;;;;;;20.46;100.00;97812.91;5032815;28;20679;-57
2023/06/13 06:16:42;;;;;;;14.93;10.23;;;;;;;20.58;100.00;97800.94;5032829;28;20174;-57
2023/06/13 06:19:09;;;;;;;12.50;9.27;;;;;;;20.86;100.00;97811.66;5032661;28;20212;-57
2023/06/13 06:21:34;;;;;;;11.00;9.90;;;;;;;20.98;100.00;97812.84;5032677;28;20243;-57
2023/06/13 06:24:00;;;;;;;14.07;9.52;;;;;;;21.16;100.00;97816.66;5032592;28;20190;-56
2023/06/13 06:26:26;;;;;;;13.32;10.05;;;;;;;21.20;100.00;97810.03;5032504;28;20182;-58
2023/06/13 06:28:52;;;;;;;14.95;10.13;;;;;;;21.33;100.00;97819.91;5032326;28;20178;-58
2023/06/13 06:31:17;;;;;;;19.00;10.45;;;;;;;21.24;100.00;97805.22;5017130;28;20647;-58
2023/06/13 06:33:43;;;;;;;11.82;10.35;;;;;;;21.24;100.00;97807.84;5012461;28;20593;-58
2023/06/13 06:36:08;;;;;;;11.80;9.27;;;;;;;21.16;100.00;97795.63;5043807;28;20185;-58
2023/06/13 06:38:34;;;;;;;11.43;9.65;;;;;;;21.30;100.00;97817.63;5054647;28;20441;-58
2023/06/13 06:40:59;;;;;;;15.93;10.57;;;;;;;21.21;100.00;97824.03;5054638;28;20176;-58
2023/06/13 06:43:25;;;;;;;12.77;9.48;;;;;;;21.20;100.00;97809.22;5054433;28;20201;-58
2023/06/13 06:45:50;;;;;;;12.75;10.43;;;;;;;21.41;100.00;97820.63;5054173;28;20169;-58
2023/06/13 06:48:16;;;;;;;14.50;10.00;;;;;;;21.27;100.00;97794.34;5054320;28;20674;-57
2023/06/13 06:50:42;;;;;;;16.35;11.05;;;;;;;21.42;100.00;97806.44;5054417;28;20173;-58
2023/06/13 06:53:07;;;;;;;13.05;9.05;;;;;;;21.45;100.00;97813.16;5054294;28;20216;-57
2023/06/13 06:55:32;;;;;;;12.35;9.75;;;;;;;21.28;100.00;97788.06;5054487;28;20702;-58
2023/06/13 06:57:58;;;;;;;17.33;9.98;;;;;;;21.35;100.00;97794.22;5053863;28;20177;-58
2023/06/13 07:00:23;;;;;;;16.77;12.07;;;;;;;21.30;100.00;97812.38;5051686;28;20275;-57
2023/06/13 07:02:49;;;;;;;15.82;11.82;;;;;;;21.39;100.00;97806.81;5051808;28;20282;-58
2023/06/13 07:05:15;;;;;;;15.57;11.65;;;;;;;21.31;100.00;97779.78;5052039;28;20196;-58
2023/06/13 07:07:42;;;;;;;16.35;11.65;;;;;;;21.60;100.00;97806.00;5051502;28;20304;-57
2023/06/13 07:10:08;;;;;;;13.70;12.18;;;;;;;21.49;100.00;97781.00;5051597;28;20289;-58
2023/06/13 07:12:34;;;;;;;15.95;11.52;;;;;;;21.63;100.00;97790.63;5051456;28;20185;-57
2023/06/13 07:15:00;;;;;;;14.07;11.52;;;;;;;21.75;100.00;97783.09;5050681;28;20181;-58
2023/06/13 07:17:25;;;;;;;14.70;11.63;;;;;;;21.67;100.00;97775.28;5049981;28;20274;-58
2023/06/13 07:19:51;;;;;;;13.63;11.07;;;;;;;21.85;100.00;97799.38;5051400;28;20173;-58
2023/06/13 07:22:17;;;;;;;13.30;10.85;;;;;;;21.76;100.00;97780.28;5051094;28;20250;-58
2023/06/13 07:24:42;;;;;;;15.73;11.30;;;;;;;21.90;100.00;97786.44;5051440;28;20193;-58
2023/06/13 07:27:07;;;;;;;13.77;12.00;;;;;;;22.10;100.00;97806.69;5051165;28;20279;-57
2023/06/13 07:29:33;;;;;;;18.08;12.10;;;;;;;22.22;100.00;97809.59;4992013;28;20326;-57
2023/06/13 07:32:00;;;;;;;13.40;11.73;;;;;;;22.25;100.00;97799.47;5011216;28;20194;-57
2023/06/13 07:34:26;;;;;;;18.95;10.20;;;;;;;22.38;100.00;97801.41;5009407;28;20186;-57
2023/06/13 07:36:53;;;;;;;11.73;10.52;;;;;;;22.50;100.00;97810.44;5006428;28;20190;-56
2023/06/13 07:39:18;;;;;;;17.58;10.73;;;;;;;22.52;100.00;97797.84;5001490;28;20179;-57
2023/06/13 07:41:46;;;;;;;18.52;10.75;;;;;;;22.65;100.00;97811.09;5011362;28;20225;-57
2023/06/13 07:44:12;;;;;;;14.63;10.68;;;;;;;22.54;100.00;97782.63;5011157;28;20201;-57
2023/06/13 07:46:38;;;;;;;21.38;11.65;;;;;;;22.64;100.00;97798.94;5011238;28;20691;-56
2023/06/13 07:49:04;;;;;;;16.45;11.32;;;;;;;22.72;100.00;97804.84;5011229;28;20186;-56
2023/06/13 07:51:29;;;;;;;13.32;9.73;;;;;;;22.49;100.00;97803.53;5011237;28;20244;-56
2023/06/13 07:53:55;;;;;;;14.48;9.60;;;;;;;22.15;100.00;97782.38;5011172;28;20178;-56
2023/06/13 07:56:20;;;;;;;12.15;9.52;;;;;;;21.98;100.00;97796.84;5011070;28;20198;-57
2023/06/13 07:58:46;;;;;;;14.13;9.20;;;;;;;22.03;100.00;97805.00;5011122;28;20602;-58
2023/06/13 08:01:11;;;;;;;11.45;10.10;;;;;;;22.00;100.00;97798.28;5021589;28;20577;-58
2023/06/13 08:03:36;;;;;;;12.40;10.98;;;;;;;21.84;100.00;97805.63;5030804;28;20272;-57
2023/06/13 08:06:02;;;;;;;14.43;11.10;;;;;;;21.89;100.00;97805.88;5030703;28;20189;-58
2023/06/13 08:08:27;;;;;;;12.45;10.68;;;;;;;21.99;100.00;97803.75;5030597;28;20259;-58
2023/06/13 08:10:53;;;;;;;14.73;10.82;;;;;;;21.92;100.00;97798.41;5030558;28;20194;-58
2023/06/13 08:13:19;;;;;;;12.15;10.30;;;;;;;21.88;100.00;97775.28;5030586;28;20182;-58
2023/06/13 08:15:45;;;;;;;14.10;10.80;;;;;;;22.10;100.00;97790.06;5030520;28;20185;-58
2023/06/13 08:18:10;;;;;;;14.10;10.68;;;;;;;22.20;100.00;97769.44;5030452;28;20663;-57
2023/06/13 08:20:36;;;;;;;12.20;10.80;;;;;;;22.59;100.00;97806.59;5030427;28;20247;-55
2023/06/13 08:23:01;;;;;;;14.85;10.98;;;;;;;22.74;100.00;97791.47;5030321;28;20718;-58
2023/06/13 08:25:27;;;;;;;14.20;10.77;;;;;;;22.91;100.00;97779.59;5029848;28;20261;-57
2023/06/13 08:27:52;;;;;;;12.63;10.35;;;;;;;23.07;100.00;97769.47;5030221;28;20300;-57
2023/06/13 08:30:18;;;;;;;15.18;10.60;;;;;;;23.31;100.00;97789.28;5030087;28;20689;-57
2023/06/13 08:32:46;;;;;;;12.05;10.40;;;;;;;23.34;100.00;97775.66;5061129;28;20188;-57
2023/06/13 08:35:12;;;;;;;14.10;10.27;;;;;;;23.40;100.00;97770.41;5072363;28;20195;-57
2023/06/13 08:37:38;;;;;;;10.98;9.88;;;;;;;23.56;100.00;97790.34;5072423;28;20172;-57
2023/06/13 08:40:06;;;;;;;9.88;9.00;;;;;;;23.47;100.00;97765.13;5010297;28;20197;-57
2023/06/13 08:42:32;;;;;;;13.85;9.20;;;;;;;23.36;100.00;97771.03;5010283;28;20194;-57
2023/06/13 08:44:58;;;;;;;11.85;9.40;;;;;;;23.38;100.00;97795.38;5010205;28;20194;-57
2023/06/13 08:47:24;;;;;;;12.63;10.07;;;;;;;23.26;100.00;97770.59;5010230;28;20284;-57
2023/06/13 08:49:50;;;;;;;8.18;7.47;;;;;;;23.35;100.00;97770.19;5010166;28;20202;-57
2023/06/13 08:52:17;;;;;;;10.30;7.80;;;;;;;23.58;100.00;97786.47;5010160;28;20719;-57
2023/06/13 08:54:44;;;;;;;8.98;8.15;;;;;;;23.73;100.00;97787.91;5010066;28;20597;-57
2023/06/13 08:57:14;;;;;;;8.70;7.82;;;;;;;23.66;100.00;97765.16;5010134;28;20280;-57
2023/06/13 08:59:44;;;;;;;10.80;7.60;;;;;;;23.78;100.00;97753.78;5010141;28;20344;-57
2023/06/13 09:02:15;;;;;;;8.63;7.18;;;;;;;23.94;100.00;97757.06;5010188;28;20171;-57
2023/06/13 09:04:43;;;;;;;8.20;6.20;;;;;;;24.06;100.00;97766.81;5010037;28;20269;-57
2023/06/13 09:07:10;;;;;;;10.60;6.90;;;;;;;24.14;100.00;97772.69;5009989;28;20618;-57
2023/06/13 09:09:36;;;;;;;13.60;6.90;;;;;;;24.06;100.00;97753.59;5009988;28;20182;-57
2023/06/13 09:12:03;;;;;;;9.35;6.85;;;;;;;24.12;100.00;97755.41;5066240;28;20207;-57
2023/06/13 09:14:28;;;;;;;8.95;5.97;;;;;;;24.36;100.00;97779.38;5071850;28;20172;-57
2023/06/13 09:16:54;;;;;;;8.95;5.85;;;;;;;24.44;100.00;97781.78;5072252;28;20191;-57
2023/06/13 09:19:20;;;;;;;9.13;5.93;;;;;;;24.54;100.00;97776.06;5071965;28;20707;-57
2023/06/13 09:21:46;;;;;;;5.68;5.18;;;;;;;24.65;100.00;97768.34;5071657;28;20179;-57
2023/06/13 09:24:12;;;;;;;5.75;4.88;;;;;;;24.68;100.00;97767.91;5071747;28;20179;-57
2023/06/13 09:26:39;;;;;;;5.47;4.82;;;;;;;24.56;100.00;97745.72;5071897;28;20179;-57
2023/06/13 09:29:07;;;;;;;6.55;5.22;;;;;;;24.50;100.00;97743.13;5072210;28;20180;-57
2023/06/13 09:31:35;;;;;;;7.13;4.82;;;;;;;24.51;100.00;97750.88;5071906;28;20547;-57
2023/06/13 09:34:01;;;;;;;5.85;5.35;;;;;;;24.52;100.00;97765.72;5072147;28;20187;-57
2023/06/13 09:36:27;;;;;;;5.25;4.45;;;;;;;24.40;100.00;97754.16;5071884;28;20651;-57
2023/06/13 09:38:54;;;;;;;10.27;4.78;;;;;;;24.33;100.00;97769.19;5075087;28;20562;-57
2023/06/13 09:41:20;;;;;;;8.07;3.22;;;;;;;24.17;100.00;97753.78;5075748;28;20179;-57
2023/06/13 09:43:45;;;;;;;5.25;4.38;;;;;;;24.33;100.00;97766.53;5075663;28;20643;-57
2023/06/13 09:46:14;;;;;;;4.30;4.00;;;;;;;24.26;100.00;97751.75;5075639;28;20168;-57
2023/06/13 09:48:44;;;;;;;3.75;3.53;;;;;;;24.13;100.00;97752.56;5075391;28;20674;-57
2023/06/13 09:51:11;;;;;;;4.28;3.72;;;;;;;24.17;100.00;97757.44;5075501;28;20177;-57
2023/06/13 09:53:36;;;;;;;6.55;3.50;;;;;;;24.23;100.00;97752.13;5075446;28;20230;-57
2023/06/13 09:56:02;;;;;;;5.57;3.47;;;;;;;24.19;100.00;97777.34;5075167;28;20728;-57
2023/06/13 09:58:28;;;;;;;4.75;3.20;;;;;;;24.21;100.00;97767.41;5075397;28;20627;-57
2023/06/13 10:00:57;;;;;;;6.13;3.90;;;;;;;24.21;100.00;97770.84;5075023;28;20173;-57
2023/06/13 10:03:23;;;;;;;5.57;3.70;;;;;;;23.78;100.00;97737.94;5075218;28;20272;-57
2023/06/13 10:05:49;;;;;;;7.28;4.07;;;;;;;23.97;100.00;97759.28;5075219;28;20260;-57
2023/06/13 10:08:15;;;;;;;7.65;3.97;;;;;;;24.00;100.00;97729.81;5075154;28;20741;-57
2023/06/13 10:10:41;;;;;;;7.25;3.97;;;;;;;24.30;100.00;97756.41;5075177;28;20177;-57
2023/06/13 10:13:13;;;;;;;4.63;3.90;;;;;;;24.29;100.00;97740.72;5075137;28;20176;-57
2023/06/13 10:15:51;;;;;;;6.63;4.13;;;;;;;24.41;100.00;97745.19;5075148;28;20164;-57
2023/06/13 10:18:20;;;;;;;4.45;4.05;;;;;;;24.49;100.00;97741.50;5074895;28;20180;-57
2023/06/13 10:20:48;;;;;;;6.47;4.20;;;;;;;24.47;100.00;97754.09;5074986;28;20230;-57
2023/06/13 10:23:18;;;;;;;5.47;3.78;;;;;;;24.47;100.00;97754.09;5074976;28;20206;-57
2023/06/13 10:25:52;;;;;;;12.13;3.80;;;;;;;24.43;100.00;97737.06;5074887;28;20188;-57
2023/06/13 10:28:26;;;;;;;5.05;3.58;;;;;;;24.53;100.00;97754.09;5074740;28;20210;-57
2023/06/13 10:31:11;;;;;;;7.43;4.10;;;;;;;24.50;100.00;97732.53;5074694;28;20721;-57
2023/06/13 10:34:03;;;;;;;6.05;4.03;;;;;;;24.69;100.00;97748.38;5074850;28;20169;-57
2023/06/13 10:36:41;;;;;;;4.10;3.80;;;;;;;24.69;100.00;97724.56;5024511;28;20190;-57
2023/06/13 10:39:24;;;;;;;5.10;3.97;;;;;;;24.88;100.00;97746.66;5032373;28;20201;-57
2023/06/13 10:42:16;;;;;;;6.88;4.00;;;;;;;24.94;100.00;97751.94;5032323;28;20192;-57
2023/06/13 10:44:48;;;;;;;5.13;3.92;;;;;;;24.75;89.80;97725.56;5032275;28;20182;-57
2023/06/13 10:47:19;;;;;;;5.18;3.60;;;;;;;24.73;87.04;97723.09;5032218;28;20272;-57
2023/06/13 10:49:48;;;;;;;5.65;3.78;;;;;;;24.67;85.98;97723.94;5031742;28;20200;-57
2023/06/13 10:52:13;;;;;;;6.85;3.80;;;;;;;24.82;84.24;97742.22;5032130;28;20182;-57
2023/06/13 10:54:40;;;;;;;5.60;4.18;;;;;;;24.60;88.08;97723.16;5032097;28;20189;-57
2023/06/13 10:57:06;;;;;;;4.80;3.95;;;;;;;24.45;85.22;97741.09;5032018;28;20198;-57
2023/06/13 10:59:37;;;;;;;4.20;3.90;;;;;;;24.42;84.50;97743.34;5031981;28;20189;-57
2023/06/13 11:02:03;;;;;;;7.85;4.28;;;;;;;24.36;84.00;97738.88;5031750;28;20309;-57
2023/06/13 11:04:29;;;;;;;6.93;4.05;;;;;;;24.28;86.06;97723.25;5031874;28;20182;-57
2023/06/13 11:07:23;;;;;;;5.45;4.25;;;;;;;24.45;86.21;97746.38;5046755;28;20306;-57
2023/06/13 11:10:22;;;;;;;4.80;3.80;;;;;;;24.29;86.65;97735.44;5094038;28;20184;-57
2023/06/13 11:12:47;;;;;;;7.93;3.80;;;;;;;24.29;84.50;97720.41;5051225;28;20196;-57
2023/06/13 11:15:20;;;;;;;5.20;4.10;;;;;;;24.31;89.92;97738.72;5051260;28;20181;-57
2023/06/13 11:18:06;;;;;;;4.20;3.83;;;;;;;24.31;85.43;97728.94;5051115;28;20181;-57
2023/06/13 11:20:32;;;;;;;4.13;3.70;;;;;;;24.17;84.47;97716.78;5051407;28;20223;-57
2023/06/13 11:22:57;;;;;;;5.95;4.00;;;;;;;24.12;90.53;97715.75;5051347;28;20193;-57